VLVT/VTE METAR and TAF weather

Enter ICAO airport designator
Station Type Date Time Source
VLVT METAR 2022/06/27 09:00 UTC NOAA

VLVT 270900Z 36006KT 8000 FEW020 BKN050 32/27 Q1005 NOSIG


Station Type Date Time Source
VLVT Decoded METAR 2022/06/27 09:00 UTC NOAA

Vientiane, Laos (VLVT) 17-57N 102-34E 171M
Jun 27, 2022 - 05:00 AM EDT / 2022.06.27 0900 UTC
Wind: from the N (360 degrees) at 7 MPH (6 KT):0
Visibility: 4 mile(s):0
Sky conditions: mostly cloudy
Temperature: 89 F (32 C)
Heat index: 105.6 F (40.9 C):1
Dew Point: 80 F (27 C)
Relative Humidity: 74%
Pressure (altimeter): 29.68 in. Hg (1005 hPa)
ob: VLVT 270900Z 36006KT 8000 FEW020 BKN050 32/27 Q1005 NOSIG
cycle: 9

Station Type Date Time Source
VLVT TAF 2022/06/27 06:39 UTC NOAA

TAF TAF VLVT 270500Z 2706/2806 22006KT 9999 SCT016 BKN050

Example: see airport list